sensor_id;sensor_type;location;lat;lon;timestamp;P1;durP1;ratioP1;P2;durP2;ratioP2
18176;SDS011;9213;50.858;3.964;2022-11-06T00:00:53;8.57;;;3.70;;
18176;SDS011;9213;50.858;3.964;2022-11-06T00:03:20;7.73;;;3.97;;
18176;SDS011;9213;50.858;3.964;2022-11-06T00:05:47;10.13;;;3.70;;
18176;SDS011;9213;50.858;3.964;2022-11-06T00:08:34;9.40;;;3.60;;
18176;SDS011;9213;50.858;3.964;2022-11-06T00:11:07;7.37;;;3.50;;
18176;SDS011;9213;50.858;3.964;2022-11-06T00:13:35;7.90;;;4.00;;
18176;SDS011;9213;50.858;3.964;2022-11-06T00:16:03;11.00;;;3.83;;
18176;SDS011;9213;50.858;3.964;2022-11-06T00:18:30;9.37;;;4.57;;
18176;SDS011;9213;50.858;3.964;2022-11-06T00:20:57;11.63;;;3.60;;
18176;SDS011;9213;50.858;3.964;2022-11-06T00:23:24;7.47;;;3.63;;
18176;SDS011;9213;50.858;3.964;2022-11-06T00:25:52;6.83;;;3.80;;
18176;SDS011;9213;50.858;3.964;2022-11-06T00:28:20;9.03;;;3.77;;
18176;SDS011;9213;50.858;3.964;2022-11-06T00:30:47;7.20;;;3.53;;
18176;SDS011;9213;50.858;3.964;2022-11-06T00:33:14;8.27;;;3.63;;
18176;SDS011;9213;50.858;3.964;2022-11-06T00:35:41;9.07;;;3.40;;
18176;SDS011;9213;50.858;3.964;2022-11-06T00:38:08;4.77;;;3.17;;
18176;SDS011;9213;50.858;3.964;2022-11-06T00:40:35;5.73;;;3.10;;
18176;SDS011;9213;50.858;3.964;2022-11-06T00:43:03;6.47;;;3.73;;
18176;SDS011;9213;50.858;3.964;2022-11-06T00:45:30;7.67;;;3.40;;
18176;SDS011;9213;50.858;3.964;2022-11-06T00:47:56;8.90;;;3.70;;
18176;SDS011;9213;50.858;3.964;2022-11-06T00:50:24;12.27;;;3.80;;
18176;SDS011;9213;50.858;3.964;2022-11-06T00:52:51;14.17;;;3.83;;
18176;SDS011;9213;50.858;3.964;2022-11-06T00:55:18;8.43;;;3.60;;
18176;SDS011;9213;50.858;3.964;2022-11-06T00:57:45;12.10;;;4.53;;
18176;SDS011;9213;50.858;3.964;2022-11-06T01:00:14;9.90;;;4.13;;
18176;SDS011;9213;50.858;3.964;2022-11-06T01:02:44;10.50;;;3.30;;
18176;SDS011;9213;50.858;3.964;2022-11-06T01:05:12;10.27;;;3.73;;
18176;SDS011;9213;50.858;3.964;2022-11-06T01:07:39;8.77;;;3.80;;
18176;SDS011;9213;50.858;3.964;2022-11-06T01:10:06;8.20;;;3.83;;
18176;SDS011;9213;50.858;3.964;2022-11-06T01:12:34;7.77;;;3.40;;
18176;SDS011;9213;50.858;3.964;2022-11-06T01:15:00;7.00;;;3.63;;
18176;SDS011;9213;50.858;3.964;2022-11-06T01:17:29;6.80;;;2.90;;
18176;SDS011;9213;50.858;3.964;2022-11-06T01:19:56;7.73;;;3.47;;
18176;SDS011;9213;50.858;3.964;2022-11-06T01:22:23;7.87;;;3.40;;
18176;SDS011;9213;50.858;3.964;2022-11-06T01:24:49;7.67;;;3.43;;
18176;SDS011;9213;50.858;3.964;2022-11-06T01:27:16;8.53;;;3.47;;
18176;SDS011;9213;50.858;3.964;2022-11-06T01:29:43;9.60;;;3.20;;
18176;SDS011;9213;50.858;3.964;2022-11-06T01:32:10;5.73;;;3.10;;
18176;SDS011;9213;50.858;3.964;2022-11-06T01:34:38;8.40;;;3.23;;
18176;SDS011;9213;50.858;3.964;2022-11-06T01:37:05;9.10;;;3.30;;
18176;SDS011;9213;50.858;3.964;2022-11-06T01:39:32;8.03;;;3.30;;
18176;SDS011;9213;50.858;3.964;2022-11-06T01:41:59;5.13;;;2.97;;
18176;SDS011;9213;50.858;3.964;2022-11-06T01:47:42;9.50;;;3.60;;
18176;SDS011;9213;50.858;3.964;2022-11-06T01:50:11;8.57;;;4.17;;
18176;SDS011;9213;50.858;3.964;2022-11-06T01:52:41;10.80;;;3.50;;
18176;SDS011;9213;50.858;3.964;2022-11-06T01:55:11;8.30;;;3.20;;
18176;SDS011;9213;50.858;3.964;2022-11-06T01:57:40;6.40;;;3.13;;
18176;SDS011;9213;50.858;3.964;2022-11-06T02:00:08;10.63;;;3.30;;
18176;SDS011;9213;50.858;3.964;2022-11-06T02:02:36;6.77;;;3.20;;
18176;SDS011;9213;50.858;3.964;2022-11-06T02:05:04;8.97;;;3.13;;
18176;SDS011;9213;50.858;3.964;2022-11-06T02:07:33;9.83;;;3.50;;
18176;SDS011;9213;50.858;3.964;2022-11-06T02:10:00;10.53;;;3.10;;
18176;SDS011;9213;50.858;3.964;2022-11-06T02:12:32;6.07;;;3.03;;
18176;SDS011;9213;50.858;3.964;2022-11-06T02:15:11;9.00;;;3.00;;
18176;SDS011;9213;50.858;3.964;2022-11-06T02:17:48;9.60;;;2.97;;
18176;SDS011;9213;50.858;3.964;2022-11-06T02:20:27;10.23;;;3.00;;
18176;SDS011;9213;50.858;3.964;2022-11-06T02:23:08;6.17;;;3.20;;
18176;SDS011;9213;50.858;3.964;2022-11-06T02:25:51;8.83;;;3.10;;
18176;SDS011;9213;50.858;3.964;2022-11-06T02:28:31;8.77;;;3.80;;
18176;SDS011;9213;50.858;3.964;2022-11-06T02:31:04;11.33;;;3.30;;
18176;SDS011;9213;50.858;3.964;2022-11-06T02:33:37;8.87;;;3.03;;
18176;SDS011;9213;50.858;3.964;2022-11-06T02:36:10;7.87;;;3.40;;
18176;SDS011;9213;50.858;3.964;2022-11-06T02:38:42;6.30;;;3.07;;
18176;SDS011;9213;50.858;3.964;2022-11-06T02:41:14;11.40;;;3.30;;
18176;SDS011;9213;50.858;3.964;2022-11-06T02:43:46;5.40;;;3.27;;
18176;SDS011;9213;50.858;3.964;2022-11-06T02:46:16;7.50;;;2.63;;
18176;SDS011;9213;50.858;3.964;2022-11-06T02:48:48;13.27;;;3.80;;
18176;SDS011;9213;50.858;3.964;2022-11-06T02:51:19;6.53;;;3.10;;
18176;SDS011;9213;50.858;3.964;2022-11-06T02:53:50;6.33;;;3.30;;
18176;SDS011;9213;50.858;3.964;2022-11-06T02:56:21;4.10;;;2.87;;
18176;SDS011;9213;50.858;3.964;2022-11-06T02:58:53;9.20;;;3.50;;
18176;SDS011;9213;50.858;3.964;2022-11-06T03:01:25;7.80;;;3.20;;
18176;SDS011;9213;50.858;3.964;2022-11-06T03:03:56;8.90;;;3.50;;
18176;SDS011;9213;50.858;3.964;2022-11-06T03:06:30;5.93;;;3.00;;
18176;SDS011;9213;50.858;3.964;2022-11-06T03:09:01;5.57;;;2.83;;
18176;SDS011;9213;50.858;3.964;2022-11-06T03:11:32;8.47;;;2.87;;
18176;SDS011;9213;50.858;3.964;2022-11-06T03:14:05;6.90;;;3.07;;
18176;SDS011;9213;50.858;3.964;2022-11-06T03:16:39;7.93;;;3.03;;
18176;SDS011;9213;50.858;3.964;2022-11-06T03:19:18;8.73;;;3.57;;
18176;SDS011;9213;50.858;3.964;2022-11-06T03:21:52;6.80;;;3.10;;
18176;SDS011;9213;50.858;3.964;2022-11-06T03:24:24;8.27;;;3.47;;
18176;SDS011;9213;50.858;3.964;2022-11-06T03:26:55;9.70;;;3.03;;
18176;SDS011;9213;50.858;3.964;2022-11-06T03:29:28;7.40;;;3.10;;
18176;SDS011;9213;50.858;3.964;2022-11-06T03:32:00;8.57;;;3.33;;
18176;SDS011;9213;50.858;3.964;2022-11-06T03:34:37;5.67;;;3.03;;
18176;SDS011;9213;50.858;3.964;2022-11-06T03:37:09;7.47;;;3.20;;
18176;SDS011;9213;50.858;3.964;2022-11-06T03:39:43;8.43;;;3.27;;
18176;SDS011;9213;50.858;3.964;2022-11-06T03:42:14;7.60;;;3.43;;
18176;SDS011;9213;50.858;3.964;2022-11-06T03:44:45;9.97;;;3.50;;
18176;SDS011;9213;50.858;3.964;2022-11-06T03:47:16;5.23;;;2.93;;
18176;SDS011;9213;50.858;3.964;2022-11-06T03:49:48;11.93;;;3.77;;
18176;SDS011;9213;50.858;3.964;2022-11-06T03:52:21;10.97;;;3.43;;
18176;SDS011;9213;50.858;3.964;2022-11-06T03:54:54;11.53;;;3.37;;
18176;SDS011;9213;50.858;3.964;2022-11-06T03:57:26;10.80;;;3.47;;
18176;SDS011;9213;50.858;3.964;2022-11-06T04:00:01;10.43;;;3.40;;
18176;SDS011;9213;50.858;3.964;2022-11-06T04:02:30;6.37;;;2.90;;
18176;SDS011;9213;50.858;3.964;2022-11-06T04:05:01;6.80;;;3.53;;
18176;SDS011;9213;50.858;3.964;2022-11-06T04:07:34;6.40;;;3.13;;
18176;SDS011;9213;50.858;3.964;2022-11-06T04:10:05;8.30;;;3.47;;
18176;SDS011;9213;50.858;3.964;2022-11-06T04:12:53;12.67;;;3.40;;
18176;SDS011;9213;50.858;3.964;2022-11-06T04:15:43;7.80;;;3.40;;
18176;SDS011;9213;50.858;3.964;2022-11-06T04:18:16;9.13;;;2.80;;
18176;SDS011;9213;50.858;3.964;2022-11-06T04:20:45;11.07;;;3.33;;
18176;SDS011;9213;50.858;3.964;2022-11-06T04:23:35;7.23;;;2.80;;
18176;SDS011;9213;50.858;3.964;2022-11-06T04:26:34;9.87;;;3.13;;
18176;SDS011;9213;50.858;3.964;2022-11-06T04:29:12;9.30;;;3.40;;
18176;SDS011;9213;50.858;3.964;2022-11-06T04:31:48;7.67;;;2.90;;
18176;SDS011;9213;50.858;3.964;2022-11-06T04:34:25;9.87;;;3.17;;
18176;SDS011;9213;50.858;3.964;2022-11-06T04:36:59;8.13;;;2.90;;
18176;SDS011;9213;50.858;3.964;2022-11-06T04:39:33;8.80;;;3.33;;
18176;SDS011;9213;50.858;3.964;2022-11-06T04:42:05;7.57;;;3.03;;
18176;SDS011;9213;50.858;3.964;2022-11-06T04:44:37;7.87;;;2.90;;
18176;SDS011;9213;50.858;3.964;2022-11-06T04:47:08;9.93;;;3.07;;
18176;SDS011;9213;50.858;3.964;2022-11-06T04:49:40;9.20;;;2.93;;
18176;SDS011;9213;50.858;3.964;2022-11-06T04:52:10;7.53;;;3.17;;
18176;SDS011;9213;50.858;3.964;2022-11-06T04:54:40;7.00;;;3.27;;
18176;SDS011;9213;50.858;3.964;2022-11-06T04:57:07;7.23;;;2.93;;
18176;SDS011;9213;50.858;3.964;2022-11-06T04:59:34;9.47;;;2.90;;
18176;SDS011;9213;50.858;3.964;2022-11-06T05:02:04;8.07;;;3.33;;
18176;SDS011;9213;50.858;3.964;2022-11-06T05:04:32;8.97;;;3.20;;
18176;SDS011;9213;50.858;3.964;2022-11-06T05:06:59;7.83;;;3.00;;
18176;SDS011;9213;50.858;3.964;2022-11-06T05:09:26;6.93;;;3.13;;
18176;SDS011;9213;50.858;3.964;2022-11-06T05:11:53;7.83;;;3.10;;
18176;SDS011;9213;50.858;3.964;2022-11-06T05:14:20;9.17;;;3.10;;
18176;SDS011;9213;50.858;3.964;2022-11-06T05:16:47;7.87;;;3.13;;
18176;SDS011;9213;50.858;3.964;2022-11-06T05:19:13;10.63;;;3.20;;
18176;SDS011;9213;50.858;3.964;2022-11-06T05:21:42;7.03;;;3.10;;
18176;SDS011;9213;50.858;3.964;2022-11-06T05:24:26;10.73;;;3.27;;
18176;SDS011;9213;50.858;3.964;2022-11-06T05:26:53;7.23;;;3.10;;
18176;SDS011;9213;50.858;3.964;2022-11-06T05:29:19;10.57;;;3.20;;
18176;SDS011;9213;50.858;3.964;2022-11-06T05:31:46;12.97;;;3.50;;
18176;SDS011;9213;50.858;3.964;2022-11-06T05:34:13;8.13;;;2.90;;
18176;SDS011;9213;50.858;3.964;2022-11-06T05:36:41;7.33;;;3.40;;
18176;SDS011;9213;50.858;3.964;2022-11-06T05:39:08;11.77;;;3.00;;
18176;SDS011;9213;50.858;3.964;2022-11-06T05:41:35;6.03;;;3.00;;
18176;SDS011;9213;50.858;3.964;2022-11-06T05:44:02;9.40;;;3.67;;
18176;SDS011;9213;50.858;3.964;2022-11-06T05:46:29;11.03;;;3.57;;
18176;SDS011;9213;50.858;3.964;2022-11-06T05:48:56;8.00;;;3.00;;
18176;SDS011;9213;50.858;3.964;2022-11-06T05:51:23;6.93;;;3.13;;
18176;SDS011;9213;50.858;3.964;2022-11-06T05:53:51;11.17;;;3.13;;
18176;SDS011;9213;50.858;3.964;2022-11-06T05:56:18;11.23;;;3.10;;
18176;SDS011;9213;50.858;3.964;2022-11-06T05:58:45;9.30;;;3.00;;
18176;SDS011;9213;50.858;3.964;2022-11-06T06:01:12;7.47;;;3.40;;
18176;SDS011;9213;50.858;3.964;2022-11-06T06:03:39;7.63;;;2.80;;
18176;SDS011;9213;50.858;3.964;2022-11-06T06:06:05;7.67;;;3.23;;
18176;SDS011;9213;50.858;3.964;2022-11-06T06:08:32;7.13;;;3.00;;
18176;SDS011;9213;50.858;3.964;2022-11-06T06:11:04;7.87;;;3.00;;
18176;SDS011;9213;50.858;3.964;2022-11-06T06:13:31;6.80;;;2.83;;
18176;SDS011;9213;50.858;3.964;2022-11-06T06:15:59;7.97;;;3.20;;
18176;SDS011;9213;50.858;3.964;2022-11-06T06:18:26;8.07;;;3.07;;
18176;SDS011;9213;50.858;3.964;2022-11-06T06:20:55;6.63;;;2.90;;
18176;SDS011;9213;50.858;3.964;2022-11-06T06:23:22;5.07;;;2.97;;
18176;SDS011;9213;50.858;3.964;2022-11-06T06:25:49;6.80;;;2.60;;
18176;SDS011;9213;50.858;3.964;2022-11-06T06:28:17;6.17;;;3.40;;
18176;SDS011;9213;50.858;3.964;2022-11-06T06:30:44;5.97;;;2.97;;
18176;SDS011;9213;50.858;3.964;2022-11-06T06:33:11;5.57;;;3.07;;
18176;SDS011;9213;50.858;3.964;2022-11-06T06:35:38;11.20;;;2.80;;
18176;SDS011;9213;50.858;3.964;2022-11-06T06:38:05;8.00;;;3.00;;
18176;SDS011;9213;50.858;3.964;2022-11-06T06:40:31;5.53;;;2.83;;
18176;SDS011;9213;50.858;3.964;2022-11-06T06:42:58;6.47;;;3.00;;
18176;SDS011;9213;50.858;3.964;2022-11-06T06:45:26;8.37;;;2.80;;
18176;SDS011;9213;50.858;3.964;2022-11-06T06:47:53;6.23;;;2.53;;
18176;SDS011;9213;50.858;3.964;2022-11-06T06:50:20;6.43;;;3.33;;
18176;SDS011;9213;50.858;3.964;2022-11-06T06:52:47;8.63;;;2.90;;
18176;SDS011;9213;50.858;3.964;2022-11-06T06:55:14;5.63;;;2.60;;
18176;SDS011;9213;50.858;3.964;2022-11-06T06:57:41;5.90;;;2.73;;
18176;SDS011;9213;50.858;3.964;2022-11-06T07:00:08;8.63;;;3.00;;
18176;SDS011;9213;50.858;3.964;2022-11-06T07:02:37;6.90;;;3.03;;
18176;SDS011;9213;50.858;3.964;2022-11-06T07:05:04;8.27;;;2.70;;
18176;SDS011;9213;50.858;3.964;2022-11-06T07:07:31;7.17;;;2.83;;
18176;SDS011;9213;50.858;3.964;2022-11-06T07:09:57;5.63;;;2.83;;
18176;SDS011;9213;50.858;3.964;2022-11-06T07:12:24;8.77;;;3.17;;
18176;SDS011;9213;50.858;3.964;2022-11-06T07:14:51;10.47;;;3.53;;
18176;SDS011;9213;50.858;3.964;2022-11-06T07:17:18;7.30;;;3.23;;
18176;SDS011;9213;50.858;3.964;2022-11-06T07:19:46;8.80;;;3.80;;
18176;SDS011;9213;50.858;3.964;2022-11-06T07:22:13;11.83;;;2.97;;
18176;SDS011;9213;50.858;3.964;2022-11-06T07:24:40;8.17;;;2.80;;
18176;SDS011;9213;50.858;3.964;2022-11-06T07:27:07;5.70;;;2.67;;
18176;SDS011;9213;50.858;3.964;2022-11-06T07:29:33;5.73;;;2.60;;
18176;SDS011;9213;50.858;3.964;2022-11-06T07:32:00;4.20;;;2.40;;
18176;SDS011;9213;50.858;3.964;2022-11-06T07:34:27;9.57;;;2.60;;
18176;SDS011;9213;50.858;3.964;2022-11-06T07:36:55;8.43;;;2.87;;
18176;SDS011;9213;50.858;3.964;2022-11-06T07:39:22;4.83;;;2.60;;
18176;SDS011;9213;50.858;3.964;2022-11-06T07:41:49;5.33;;;2.60;;
18176;SDS011;9213;50.858;3.964;2022-11-06T07:44:16;8.73;;;2.53;;
18176;SDS011;9213;50.858;3.964;2022-11-06T07:46:42;6.43;;;2.50;;
18176;SDS011;9213;50.858;3.964;2022-11-06T07:49:09;4.60;;;2.33;;
18176;SDS011;9213;50.858;3.964;2022-11-06T07:51:36;4.67;;;2.53;;
18176;SDS011;9213;50.858;3.964;2022-11-06T07:54:04;5.53;;;2.23;;
18176;SDS011;9213;50.858;3.964;2022-11-06T07:56:31;9.27;;;3.00;;
18176;SDS011;9213;50.858;3.964;2022-11-06T07:58:58;3.10;;;2.30;;
18176;SDS011;9213;50.858;3.964;2022-11-06T08:01:25;5.30;;;2.50;;
18176;SDS011;9213;50.858;3.964;2022-11-06T08:03:52;6.73;;;2.27;;
18176;SDS011;9213;50.858;3.964;2022-11-06T08:06:19;5.70;;;2.40;;
18176;SDS011;9213;50.858;3.964;2022-11-06T08:08:46;6.00;;;2.03;;
18176;SDS011;9213;50.858;3.964;2022-11-06T08:11:14;7.10;;;2.70;;
18176;SDS011;9213;50.858;3.964;2022-11-06T08:13:41;5.27;;;2.50;;
18176;SDS011;9213;50.858;3.964;2022-11-06T08:16:09;8.20;;;2.73;;
18176;SDS011;9213;50.858;3.964;2022-11-06T08:18:37;5.50;;;2.23;;
18176;SDS011;9213;50.858;3.964;2022-11-06T08:21:04;6.57;;;2.20;;
18176;SDS011;9213;50.858;3.964;2022-11-06T08:23:32;4.37;;;2.00;;
18176;SDS011;9213;50.858;3.964;2022-11-06T08:26:00;4.60;;;2.20;;
18176;SDS011;9213;50.858;3.964;2022-11-06T08:28:29;6.83;;;2.37;;
18176;SDS011;9213;50.858;3.964;2022-11-06T08:30:56;6.93;;;2.10;;
18176;SDS011;9213;50.858;3.964;2022-11-06T08:33:23;6.40;;;2.30;;
18176;SDS011;9213;50.858;3.964;2022-11-06T08:35:49;6.03;;;2.70;;
18176;SDS011;9213;50.858;3.964;2022-11-06T08:38:16;6.27;;;2.27;;
18176;SDS011;9213;50.858;3.964;2022-11-06T08:40:43;7.23;;;2.37;;
18176;SDS011;9213;50.858;3.964;2022-11-06T08:43:10;4.50;;;2.30;;
18176;SDS011;9213;50.858;3.964;2022-11-06T08:45:39;2.83;;;2.30;;
18176;SDS011;9213;50.858;3.964;2022-11-06T08:48:07;5.20;;;2.83;;
18176;SDS011;9213;50.858;3.964;2022-11-06T08:50:35;3.63;;;2.10;;
18176;SDS011;9213;50.858;3.964;2022-11-06T08:53:03;4.60;;;2.00;;
18176;SDS011;9213;50.858;3.964;2022-11-06T08:55:30;3.87;;;2.40;;
18176;SDS011;9213;50.858;3.964;2022-11-06T08:57:58;7.00;;;2.13;;
18176;SDS011;9213;50.858;3.964;2022-11-06T09:00:25;4.53;;;2.40;;
18176;SDS011;9213;50.858;3.964;2022-11-06T09:02:57;4.87;;;2.30;;
18176;SDS011;9213;50.858;3.964;2022-11-06T09:05:25;7.23;;;2.00;;
18176;SDS011;9213;50.858;3.964;2022-11-06T09:07:52;3.87;;;2.20;;
18176;SDS011;9213;50.858;3.964;2022-11-06T09:10:19;6.17;;;2.10;;
18176;SDS011;9213;50.858;3.964;2022-11-06T09:12:46;7.07;;;2.10;;
18176;SDS011;9213;50.858;3.964;2022-11-06T09:15:13;5.37;;;2.10;;
18176;SDS011;9213;50.858;3.964;2022-11-06T09:17:41;11.93;;;2.67;;
18176;SDS011;9213;50.858;3.964;2022-11-06T09:20:10;3.87;;;2.20;;
18176;SDS011;9213;50.858;3.964;2022-11-06T09:22:38;7.37;;;2.30;;
18176;SDS011;9213;50.858;3.964;2022-11-06T09:25:05;5.00;;;2.30;;
18176;SDS011;9213;50.858;3.964;2022-11-06T09:27:39;3.63;;;2.27;;
18176;SDS011;9213;50.858;3.964;2022-11-06T09:30:07;6.10;;;2.10;;
18176;SDS011;9213;50.858;3.964;2022-11-06T09:32:35;7.37;;;2.60;;
18176;SDS011;9213;50.858;3.964;2022-11-06T09:35:02;6.03;;;2.20;;
18176;SDS011;9213;50.858;3.964;2022-11-06T09:37:30;6.37;;;2.40;;
18176;SDS011;9213;50.858;3.964;2022-11-06T09:39:57;5.60;;;2.30;;
18176;SDS011;9213;50.858;3.964;2022-11-06T09:42:26;6.93;;;2.73;;
18176;SDS011;9213;50.858;3.964;2022-11-06T09:45:07;9.50;;;2.60;;
18176;SDS011;9213;50.858;3.964;2022-11-06T09:47:37;5.03;;;2.07;;
18176;SDS011;9213;50.858;3.964;2022-11-06T09:50:11;5.20;;;2.33;;
18176;SDS011;9213;50.858;3.964;2022-11-06T09:52:43;3.23;;;1.80;;
18176;SDS011;9213;50.858;3.964;2022-11-06T09:55:14;6.33;;;2.33;;
18176;SDS011;9213;50.858;3.964;2022-11-06T09:57:45;7.07;;;1.93;;
18176;SDS011;9213;50.858;3.964;2022-11-06T10:00:16;7.70;;;2.77;;
18176;SDS011;9213;50.858;3.964;2022-11-06T10:02:44;5.10;;;2.10;;
18176;SDS011;9213;50.858;3.964;2022-11-06T10:05:16;9.43;;;2.33;;
18176;SDS011;9213;50.858;3.964;2022-11-06T10:07:50;8.60;;;2.20;;
18176;SDS011;9213;50.858;3.964;2022-11-06T10:10:21;4.27;;;1.80;;
18176;SDS011;9213;50.858;3.964;2022-11-06T10:12:57;6.63;;;2.10;;
18176;SDS011;9213;50.858;3.964;2022-11-06T10:15:32;4.70;;;2.30;;
18176;SDS011;9213;50.858;3.964;2022-11-06T10:18:04;6.80;;;2.20;;
18176;SDS011;9213;50.858;3.964;2022-11-06T10:20:38;7.70;;;2.50;;
18176;SDS011;9213;50.858;3.964;2022-11-06T10:23:15;5.33;;;2.43;;
18176;SDS011;9213;50.858;3.964;2022-11-06T10:25:47;6.30;;;2.20;;
18176;SDS011;9213;50.858;3.964;2022-11-06T10:28:26;7.67;;;2.20;;
18176;SDS011;9213;50.858;3.964;2022-11-06T10:31:06;5.97;;;2.97;;
18176;SDS011;9213;50.858;3.964;2022-11-06T10:33:43;5.27;;;2.10;;
18176;SDS011;9213;50.858;3.964;2022-11-06T10:36:19;5.23;;;2.20;;
18176;SDS011;9213;50.858;3.964;2022-11-06T10:38:51;6.20;;;2.10;;
18176;SDS011;9213;50.858;3.964;2022-11-06T10:41:20;6.97;;;2.60;;
18176;SDS011;9213;50.858;3.964;2022-11-06T10:43:50;4.60;;;2.27;;
18176;SDS011;9213;50.858;3.964;2022-11-06T10:46:22;6.63;;;2.80;;
18176;SDS011;9213;50.858;3.964;2022-11-06T10:48:54;9.83;;;2.50;;
18176;SDS011;9213;50.858;3.964;2022-11-06T10:51:28;4.07;;;2.30;;
18176;SDS011;9213;50.858;3.964;2022-11-06T10:54:10;8.93;;;2.30;;
18176;SDS011;9213;50.858;3.964;2022-11-06T10:56:54;4.77;;;2.53;;
18176;SDS011;9213;50.858;3.964;2022-11-06T10:59:30;5.67;;;2.07;;
18176;SDS011;9213;50.858;3.964;2022-11-06T11:01:57;5.03;;;2.20;;
18176;SDS011;9213;50.858;3.964;2022-11-06T11:04:24;3.53;;;2.37;;
18176;SDS011;9213;50.858;3.964;2022-11-06T11:06:51;5.53;;;2.37;;
18176;SDS011;9213;50.858;3.964;2022-11-06T11:09:29;6.03;;;2.40;;
18176;SDS011;9213;50.858;3.964;2022-11-06T11:11:57;5.17;;;2.10;;
18176;SDS011;9213;50.858;3.964;2022-11-06T11:14:25;8.43;;;2.30;;
18176;SDS011;9213;50.858;3.964;2022-11-06T11:16:53;6.07;;;3.00;;
18176;SDS011;9213;50.858;3.964;2022-11-06T11:19:34;6.00;;;2.47;;
18176;SDS011;9213;50.858;3.964;2022-11-06T11:22:02;5.60;;;2.30;;
18176;SDS011;9213;50.858;3.964;2022-11-06T11:24:32;4.40;;;1.97;;
18176;SDS011;9213;50.858;3.964;2022-11-06T11:26:59;4.77;;;2.10;;
18176;SDS011;9213;50.858;3.964;2022-11-06T11:29:28;8.43;;;1.90;;
18176;SDS011;9213;50.858;3.964;2022-11-06T11:31:57;4.30;;;1.90;;
18176;SDS011;9213;50.858;3.964;2022-11-06T11:34:27;5.07;;;1.90;;
18176;SDS011;9213;50.858;3.964;2022-11-06T11:36:57;6.63;;;2.30;;
18176;SDS011;9213;50.858;3.964;2022-11-06T11:39:27;5.33;;;2.27;;
18176;SDS011;9213;50.858;3.964;2022-11-06T11:42:16;4.47;;;2.03;;
18176;SDS011;9213;50.858;3.964;2022-11-06T11:45:02;6.20;;;2.40;;
18176;SDS011;9213;50.858;3.964;2022-11-06T11:47:43;4.20;;;2.30;;
18176;SDS011;9213;50.858;3.964;2022-11-06T11:50:23;4.97;;;2.20;;
18176;SDS011;9213;50.858;3.964;2022-11-06T11:52:54;3.57;;;2.10;;
18176;SDS011;9213;50.858;3.964;2022-11-06T11:55:25;8.13;;;2.40;;
18176;SDS011;9213;50.858;3.964;2022-11-06T11:57:55;9.63;;;2.93;;
18176;SDS011;9213;50.858;3.964;2022-11-06T12:00:24;6.10;;;2.57;;
18176;SDS011;9213;50.858;3.964;2022-11-06T12:02:53;4.43;;;1.90;;
18176;SDS011;9213;50.858;3.964;2022-11-06T12:05:23;5.17;;;2.40;;
18176;SDS011;9213;50.858;3.964;2022-11-06T12:07:53;7.53;;;2.60;;
18176;SDS011;9213;50.858;3.964;2022-11-06T12:10:24;7.37;;;2.53;;
18176;SDS011;9213;50.858;3.964;2022-11-06T12:12:57;4.97;;;2.57;;
18176;SDS011;9213;50.858;3.964;2022-11-06T12:15:38;6.53;;;2.43;;
18176;SDS011;9213;50.858;3.964;2022-11-06T12:18:11;6.47;;;2.70;;
18176;SDS011;9213;50.858;3.964;2022-11-06T12:20:41;7.83;;;2.70;;
18176;SDS011;9213;50.858;3.964;2022-11-06T12:23:18;6.53;;;2.80;;
18176;SDS011;9213;50.858;3.964;2022-11-06T12:25:53;10.27;;;3.10;;
18176;SDS011;9213;50.858;3.964;2022-11-06T12:28:26;10.40;;;3.10;;
18176;SDS011;9213;50.858;3.964;2022-11-06T12:31:00;8.33;;;2.80;;
18176;SDS011;9213;50.858;3.964;2022-11-06T12:33:31;5.33;;;3.03;;
18176;SDS011;9213;50.858;3.964;2022-11-06T12:36:00;8.70;;;3.23;;
18176;SDS011;9213;50.858;3.964;2022-11-06T12:38:34;7.87;;;3.10;;
18176;SDS011;9213;50.858;3.964;2022-11-06T12:41:09;6.67;;;2.93;;
18176;SDS011;9213;50.858;3.964;2022-11-06T12:43:41;10.90;;;3.43;;
18176;SDS011;9213;50.858;3.964;2022-11-06T12:46:13;7.80;;;3.03;;
18176;SDS011;9213;50.858;3.964;2022-11-06T12:48:56;5.73;;;3.50;;
18176;SDS011;9213;50.858;3.964;2022-11-06T12:51:55;6.53;;;3.53;;
18176;SDS011;9213;50.858;3.964;2022-11-06T12:54:44;6.40;;;3.10;;
18176;SDS011;9213;50.858;3.964;2022-11-06T12:57:25;10.37;;;3.60;;
18176;SDS011;9213;50.858;3.964;2022-11-06T13:00:03;7.53;;;3.40;;
18176;SDS011;9213;50.858;3.964;2022-11-06T13:02:39;12.67;;;3.67;;
18176;SDS011;9213;50.858;3.964;2022-11-06T13:05:22;12.63;;;3.57;;
18176;SDS011;9213;50.858;3.964;2022-11-06T13:07:58;5.90;;;3.50;;
18176;SDS011;9213;50.858;3.964;2022-11-06T13:10:50;5.13;;;3.20;;
18176;SDS011;9213;50.858;3.964;2022-11-06T13:13:34;5.90;;;3.30;;
18176;SDS011;9213;50.858;3.964;2022-11-06T13:16:14;8.23;;;3.30;;
18176;SDS011;9213;50.858;3.964;2022-11-06T13:18:48;9.83;;;3.87;;
18176;SDS011;9213;50.858;3.964;2022-11-06T13:21:20;7.47;;;3.00;;
18176;SDS011;9213;50.858;3.964;2022-11-06T13:23:54;5.83;;;2.80;;
18176;SDS011;9213;50.858;3.964;2022-11-06T13:26:26;8.37;;;3.30;;
18176;SDS011;9213;50.858;3.964;2022-11-06T13:28:58;7.43;;;3.60;;
18176;SDS011;9213;50.858;3.964;2022-11-06T13:31:29;5.27;;;2.20;;
18176;SDS011;9213;50.858;3.964;2022-11-06T13:34:01;5.23;;;2.87;;
18176;SDS011;9213;50.858;3.964;2022-11-06T13:36:30;4.10;;;2.20;;
18176;SDS011;9213;50.858;3.964;2022-11-06T13:39:04;5.20;;;2.47;;
18176;SDS011;9213;50.858;3.964;2022-11-06T13:41:38;6.03;;;2.90;;
18176;SDS011;9213;50.858;3.964;2022-11-06T13:44:06;5.87;;;3.20;;
18176;SDS011;9213;50.858;3.964;2022-11-06T13:46:38;4.03;;;2.30;;
18176;SDS011;9213;50.858;3.964;2022-11-06T13:49:17;5.83;;;2.50;;
18176;SDS011;9213;50.858;3.964;2022-11-06T13:51:52;4.43;;;2.03;;
18176;SDS011;9213;50.858;3.964;2022-11-06T13:54:25;7.10;;;2.50;;
18176;SDS011;9213;50.858;3.964;2022-11-06T13:57:11;4.03;;;2.13;;
18176;SDS011;9213;50.858;3.964;2022-11-06T13:59:58;4.00;;;2.23;;
18176;SDS011;9213;50.858;3.964;2022-11-06T14:02:50;5.33;;;2.40;;
18176;SDS011;9213;50.858;3.964;2022-11-06T14:08:23;7.27;;;2.30;;
18176;SDS011;9213;50.858;3.964;2022-11-06T14:10:55;5.43;;;1.80;;
18176;SDS011;9213;50.858;3.964;2022-11-06T14:13:27;5.83;;;2.03;;
18176;SDS011;9213;50.858;3.964;2022-11-06T14:15:57;7.10;;;2.00;;
18176;SDS011;9213;50.858;3.964;2022-11-06T14:18:27;4.37;;;1.90;;
18176;SDS011;9213;50.858;3.964;2022-11-06T14:27:04;4.00;;;2.33;;
18176;SDS011;9213;50.858;3.964;2022-11-06T14:29:50;3.73;;;2.20;;
18176;SDS011;9213;50.858;3.964;2022-11-06T14:32:42;6.30;;;2.53;;
18176;SDS011;9213;50.858;3.964;2022-11-06T14:38:17;5.40;;;2.40;;
18176;SDS011;9213;50.858;3.964;2022-11-06T14:41:00;3.73;;;2.37;;
18176;SDS011;9213;50.858;3.964;2022-11-06T14:43:37;6.33;;;2.50;;
18176;SDS011;9213;50.858;3.964;2022-11-06T14:46:04;4.87;;;3.07;;
18176;SDS011;9213;50.858;3.964;2022-11-06T14:48:43;4.00;;;2.90;;
18176;SDS011;9213;50.858;3.964;2022-11-06T14:51:12;3.57;;;2.87;;
18176;SDS011;9213;50.858;3.964;2022-11-06T14:53:45;6.80;;;2.90;;
18176;SDS011;9213;50.858;3.964;2022-11-06T14:56:21;5.20;;;2.77;;
18176;SDS011;9213;50.858;3.964;2022-11-06T14:58:53;7.97;;;3.60;;
18176;SDS011;9213;50.858;3.964;2022-11-06T15:01:23;9.27;;;3.83;;
18176;SDS011;9213;50.858;3.964;2022-11-06T15:03:53;5.90;;;2.93;;
18176;SDS011;9213;50.858;3.964;2022-11-06T15:06:36;5.33;;;2.93;;
18176;SDS011;9213;50.858;3.964;2022-11-06T15:09:11;5.47;;;3.00;;
18176;SDS011;9213;50.858;3.964;2022-11-06T15:17:26;9.30;;;3.87;;
18176;SDS011;9213;50.858;3.964;2022-11-06T15:19:59;5.40;;;3.30;;
18176;SDS011;9213;50.858;3.964;2022-11-06T15:22:46;6.33;;;3.07;;
18176;SDS011;9213;50.858;3.964;2022-11-06T15:25:21;5.77;;;3.03;;
18176;SDS011;9213;50.858;3.964;2022-11-06T15:27:54;4.13;;;2.83;;
18176;SDS011;9213;50.858;3.964;2022-11-06T15:30:24;5.30;;;3.10;;
18176;SDS011;9213;50.858;3.964;2022-11-06T15:32:53;6.83;;;3.20;;
18176;SDS011;9213;50.858;3.964;2022-11-06T15:35:21;6.87;;;3.60;;
18176;SDS011;9213;50.858;3.964;2022-11-06T15:37:50;7.53;;;3.30;;
18176;SDS011;9213;50.858;3.964;2022-11-06T15:40:22;4.80;;;3.17;;
18176;SDS011;9213;50.858;3.964;2022-11-06T15:42:51;7.73;;;3.50;;
18176;SDS011;9213;50.858;3.964;2022-11-06T15:45:20;8.63;;;3.53;;